createdAt,value
2023-01-26T00:01:17.430Z,18.30
2023-01-26T00:03:44.997Z,19.00
2023-01-26T00:06:15.201Z,17.30
2023-01-26T00:08:48.592Z,16.47
2023-01-26T00:11:17.878Z,17.53
2023-01-26T00:13:44.893Z,15.73
2023-01-26T00:16:15.619Z,16.27
2023-01-26T00:18:43.157Z,17.67
2023-01-26T00:21:21.151Z,16.83
2023-01-26T00:23:49.343Z,17.80
2023-01-26T00:26:18.418Z,17.70
2023-01-26T00:28:45.058Z,17.03
2023-01-26T00:31:20.362Z,15.27
2023-01-26T00:33:47.063Z,19.10
2023-01-26T00:36:13.740Z,21.80
2023-01-26T00:38:40.494Z,19.03
2023-01-26T00:41:09.313Z,17.53
2023-01-26T00:43:35.918Z,14.53
2023-01-26T00:46:02.530Z,17.63
2023-01-26T00:48:29.102Z,26.03
2023-01-26T00:50:55.688Z,19.40
2023-01-26T00:53:22.237Z,21.70
2023-01-26T00:55:48.857Z,19.77
2023-01-26T00:58:15.441Z,22.17
2023-01-26T01:00:42.084Z,19.30
2023-01-26T01:03:08.733Z,16.97
2023-01-26T01:05:35.667Z,16.67
2023-01-26T01:08:02.540Z,16.23
2023-01-26T01:10:29.452Z,20.97
2023-01-26T01:12:56.614Z,21.17
2023-01-26T01:15:24.321Z,24.13
2023-01-26T01:17:51.178Z,23.57
2023-01-26T01:20:17.887Z,20.67
2023-01-26T01:22:46.550Z,30.50
2023-01-26T01:25:13.309Z,26.67
2023-01-26T01:27:39.953Z,21.13
2023-01-26T01:30:08.236Z,28.10
2023-01-26T01:32:36.185Z,20.90
2023-01-26T01:35:03.120Z,27.17
2023-01-26T01:37:30.567Z,20.93
2023-01-26T01:39:57.219Z,20.93
2023-01-26T01:42:24.342Z,22.50
2023-01-26T01:45:29.451Z,20.47
2023-01-26T01:47:59.301Z,21.33
2023-01-26T01:50:27.521Z,23.97
2023-01-26T01:52:55.624Z,24.23
2023-01-26T01:55:24.670Z,22.80
2023-01-26T01:57:55.531Z,20.77
2023-01-26T02:00:23.724Z,22.33
2023-01-26T02:03:11.354Z,24.03
2023-01-26T02:05:59.591Z,24.83
2023-01-26T02:08:33.763Z,24.00
2023-01-26T02:11:10.791Z,22.90
2023-01-26T02:13:37.806Z,19.00
2023-01-26T02:16:04.868Z,25.43
2023-01-26T02:18:31.603Z,23.47
2023-01-26T02:21:04.805Z,25.97
2023-01-26T02:27:00.736Z,23.50
2023-01-26T02:29:28.864Z,24.03
2023-01-26T02:31:56.291Z,26.70
2023-01-26T02:34:25.198Z,22.43
2023-01-26T02:36:59.183Z,21.97
2023-01-26T02:39:48.779Z,22.10
2023-01-26T02:42:34.973Z,17.37
2023-01-26T02:45:01.639Z,19.47
2023-01-26T02:47:29.996Z,20.77
2023-01-26T02:49:58.271Z,21.90
2023-01-26T02:52:27.892Z,21.03
2023-01-26T02:55:18.218Z,19.07
2023-01-26T02:57:45.734Z,20.73
2023-01-26T03:00:19.235Z,18.90
2023-01-26T03:02:47.778Z,19.73
2023-01-26T03:05:15.154Z,20.23
2023-01-26T03:07:42.215Z,17.47
2023-01-26T03:10:10.504Z,19.90
2023-01-26T03:12:37.619Z,19.40
2023-01-26T03:15:24.041Z,20.50
2023-01-26T03:18:12.054Z,16.70
2023-01-26T03:20:57.968Z,17.70
2023-01-26T03:23:43.345Z,17.20
2023-01-26T03:26:31.074Z,17.33
2023-01-26T03:28:57.733Z,15.77
2023-01-26T03:31:24.445Z,15.50
2023-01-26T03:33:52.543Z,16.87
2023-01-26T03:36:19.367Z,14.93
2023-01-26T03:38:46.070Z,15.77
2023-01-26T03:41:31.800Z,22.07
2023-01-26T03:44:18.766Z,16.00
2023-01-26T03:47:04.259Z,17.43
2023-01-26T03:49:49.466Z,13.77
2023-01-26T03:52:34.830Z,16.47
2023-01-26T03:55:21.148Z,13.97
2023-01-26T03:57:48.735Z,16.07
2023-01-26T04:00:15.943Z,13.83
2023-01-26T04:03:03.581Z,12.17
2023-01-26T04:05:48.872Z,12.40
2023-01-26T04:08:24.577Z,11.97
2023-01-26T04:10:57.092Z,12.47
2023-01-26T04:13:43.755Z,11.23
2023-01-26T04:16:36.065Z,10.10
2023-01-26T04:19:21.389Z,11.23
2023-01-26T04:21:48.045Z,10.10
2023-01-26T04:24:22.143Z,11.70
2023-01-26T04:26:53.269Z,10.67
2023-01-26T04:29:24.271Z,10.73
2023-01-26T04:31:51.407Z,10.47
2023-01-26T04:34:20.699Z,11.63
2023-01-26T04:36:47.427Z,10.63
2023-01-26T04:39:15.899Z,10.07
2023-01-26T04:41:47.079Z,13.40
2023-01-26T04:44:16.799Z,11.83
2023-01-26T04:46:43.530Z,9.60
2023-01-26T04:49:12.957Z,8.90
2023-01-26T04:51:39.906Z,9.70
2023-01-26T04:54:06.765Z,8.23
2023-01-26T04:56:37.081Z,9.23
2023-01-26T04:59:06.980Z,11.03
2023-01-26T05:01:35.810Z,11.93
2023-01-26T05:04:06.142Z,9.07
2023-01-26T05:06:33.963Z,10.13
2023-01-26T05:09:00.760Z,10.17
2023-01-26T05:11:28.221Z,9.83
2023-01-26T05:14:13.309Z,10.43
2023-01-26T05:17:18.206Z,9.30
2023-01-26T05:19:59.440Z,9.33
2023-01-26T05:22:40.010Z,9.70
2023-01-26T05:25:29.649Z,8.07
2023-01-26T05:28:02.006Z,9.60
2023-01-26T05:30:29.256Z,11.40
2023-01-26T05:33:01.571Z,10.00
2023-01-26T05:35:28.535Z,9.87
2023-01-26T05:37:56.192Z,10.73
2023-01-26T05:40:24.767Z,11.50
2023-01-26T05:42:53.178Z,11.17
2023-01-26T05:48:08.709Z,11.37
2023-01-26T05:50:35.563Z,11.27
2023-01-26T05:53:13.844Z,10.83
2023-01-26T05:55:40.592Z,10.97
2023-01-26T05:58:07.403Z,11.13
2023-01-26T06:00:34.044Z,9.93
2023-01-26T06:03:07.609Z,10.67
2023-01-26T06:05:34.686Z,12.27
2023-01-26T06:08:07.643Z,11.97
2023-01-26T06:10:48.410Z,13.37
2023-01-26T06:13:44.068Z,11.37
2023-01-26T06:16:20.914Z,10.43
2023-01-26T06:18:49.878Z,13.63
2023-01-26T06:21:17.711Z,10.63
2023-01-26T06:23:44.474Z,14.90
2023-01-26T06:26:11.997Z,13.50
2023-01-26T06:28:39.180Z,11.77
2023-01-26T06:31:08.191Z,11.77
2023-01-26T06:33:37.048Z,13.47
2023-01-26T06:36:06.110Z,9.97
2023-01-26T06:38:33.151Z,10.10
2023-01-26T06:41:05.174Z,10.30
2023-01-26T06:43:34.218Z,11.13
2023-01-26T06:46:02.546Z,12.23
2023-01-26T06:48:32.180Z,11.87
2023-01-26T06:51:19.406Z,10.87
2023-01-26T06:53:57.920Z,10.40
2023-01-26T06:56:32.677Z,9.63
2023-01-26T06:59:15.546Z,11.10
2023-01-26T07:02:20.720Z,10.23
2023-01-26T07:04:48.419Z,11.13
2023-01-26T07:07:15.460Z,10.23
2023-01-26T07:09:42.390Z,13.07
2023-01-26T07:12:09.442Z,9.90
2023-01-26T07:14:36.162Z,13.23
2023-01-26T07:17:03.126Z,8.50
2023-01-26T07:19:31.388Z,10.93
2023-01-26T07:21:58.155Z,7.70
2023-01-26T07:24:25.291Z,8.50
2023-01-26T07:26:52.167Z,9.17
2023-01-26T07:29:19.038Z,8.77
2023-01-26T07:31:45.786Z,7.60
2023-01-26T07:34:12.909Z,9.40
2023-01-26T07:36:39.913Z,7.57
2023-01-26T07:39:08.548Z,6.83
2023-01-26T07:41:35.526Z,7.23
2023-01-26T07:44:12.584Z,9.77
2023-01-26T07:46:39.992Z,8.87
2023-01-26T07:49:07.110Z,7.70
2023-01-26T07:51:33.992Z,6.00
2023-01-26T07:54:00.701Z,6.90
2023-01-26T07:56:27.304Z,8.27
2023-01-26T07:58:55.138Z,6.50
2023-01-26T08:01:22.251Z,9.50
2023-01-26T08:03:53.517Z,8.73
2023-01-26T08:06:21.251Z,10.30
2023-01-26T08:08:51.114Z,7.33
2023-01-26T08:11:19.341Z,8.70
2023-01-26T08:13:45.973Z,7.37
2023-01-26T08:16:13.106Z,6.43
2023-01-26T08:18:44.985Z,11.03
2023-01-26T08:21:13.499Z,6.70
2023-01-26T08:23:40.374Z,5.33
2023-01-26T08:26:09.861Z,7.47
2023-01-26T08:28:36.968Z,5.40
2023-01-26T08:31:12.061Z,6.13
2023-01-26T08:33:40.146Z,7.90
2023-01-26T08:36:10.483Z,6.80
2023-01-26T08:38:37.264Z,5.83
2023-01-26T08:41:04.770Z,7.77
2023-01-26T08:43:31.371Z,5.93
2023-01-26T08:45:58.372Z,9.90
2023-01-26T08:48:25.177Z,5.27
2023-01-26T08:51:03.259Z,4.80
2023-01-26T08:53:32.381Z,6.10
2023-01-26T08:56:03.007Z,11.10
2023-01-26T08:58:29.973Z,5.60
2023-01-26T09:00:56.599Z,5.83
2023-01-26T09:03:23.245Z,4.93
2023-01-26T09:05:49.898Z,6.83
2023-01-26T09:08:16.544Z,5.87
2023-01-26T09:10:45.321Z,5.80
2023-01-26T09:13:11.984Z,6.97
2023-01-26T09:15:38.907Z,7.07
2023-01-26T09:18:05.847Z,5.63
2023-01-26T09:20:32.555Z,6.03
2023-01-26T09:22:59.159Z,5.63
2023-01-26T09:25:25.850Z,5.30
2023-01-26T09:27:52.565Z,5.20
2023-01-26T09:30:19.254Z,7.13
2023-01-26T09:32:45.961Z,9.43
2023-01-26T09:35:14.498Z,7.47
2023-01-26T09:37:43.107Z,5.67
2023-01-26T09:40:18.143Z,8.10
2023-01-26T09:42:59.873Z,7.70
2023-01-26T09:45:40.848Z,8.90
2023-01-26T09:48:19.706Z,7.80
2023-01-26T09:51:13.262Z,7.50
2023-01-26T09:54:19.069Z,8.57
2023-01-26T09:56:45.746Z,11.13
2023-01-26T09:59:28.041Z,7.50
2023-01-26T10:02:17.815Z,9.13
2023-01-26T10:04:49.308Z,9.27
2023-01-26T10:07:15.964Z,9.20
2023-01-26T10:09:50.893Z,5.50
2023-01-26T10:12:28.521Z,6.77
2023-01-26T10:15:02.894Z,8.77
2023-01-26T10:17:35.146Z,11.97
2023-01-26T10:20:17.830Z,15.00
2023-01-26T10:22:47.441Z,9.27
2023-01-26T10:25:33.699Z,8.90
2023-01-26T10:28:07.231Z,10.13
2023-01-26T10:30:33.913Z,6.87
2023-01-26T10:33:00.623Z,6.53
2023-01-26T10:35:27.460Z,6.00
2023-01-26T10:37:54.204Z,9.40
2023-01-26T10:40:21.454Z,14.33
2023-01-26T10:42:59.275Z,8.30
2023-01-26T10:45:31.681Z,8.90
2023-01-26T10:48:16.273Z,5.83
2023-01-26T10:50:43.001Z,6.50
2023-01-26T10:53:17.278Z,6.23
2023-01-26T10:55:43.897Z,9.37
2023-01-26T10:58:41.688Z,6.57
2023-01-26T11:01:15.465Z,6.70
2023-01-26T11:03:56.980Z,8.27
2023-01-26T11:06:28.124Z,7.63
2023-01-26T11:09:07.844Z,6.70
2023-01-26T11:11:34.413Z,7.90
2023-01-26T11:14:21.441Z,7.13
2023-01-26T11:16:55.691Z,7.47
2023-01-26T11:19:44.212Z,6.40
2023-01-26T11:22:20.740Z,6.43
2023-01-26T11:25:02.947Z,9.57
2023-01-26T11:27:43.271Z,14.73
2023-01-26T11:30:23.199Z,7.93
2023-01-26T11:32:55.685Z,8.70
2023-01-26T11:35:40.656Z,8.63
2023-01-26T11:38:31.847Z,10.83
2023-01-26T11:41:24.883Z,8.00
2023-01-26T11:44:28.165Z,10.13
2023-01-26T11:47:03.302Z,7.73
2023-01-26T11:50:02.583Z,13.33
2023-01-26T11:52:55.975Z,9.13
2023-01-26T11:55:48.326Z,8.83
2023-01-26T11:58:32.899Z,8.40
2023-01-26T12:01:03.306Z,12.40
2023-01-26T12:03:47.552Z,10.43
2023-01-26T12:06:20.257Z,12.03
2023-01-26T12:08:59.982Z,9.43
2023-01-26T12:11:40.854Z,8.87
2023-01-26T12:14:21.270Z,11.27
2023-01-26T12:17:17.979Z,10.63
2023-01-26T12:20:23.069Z,12.47
2023-01-26T12:22:59.308Z,12.27
2023-01-26T12:25:32.905Z,7.60
2023-01-26T12:28:12.973Z,9.17
2023-01-26T12:31:07.979Z,10.67
2023-01-26T12:33:36.277Z,10.47
2023-01-26T12:36:33.334Z,12.60
2023-01-26T12:39:13.229Z,10.57
2023-01-26T12:42:17.278Z,10.10
2023-01-26T12:44:51.880Z,11.00
2023-01-26T12:47:34.358Z,13.10
2023-01-26T12:50:30.171Z,13.10
2023-01-26T12:53:21.782Z,13.60
2023-01-26T12:56:14.449Z,12.83
2023-01-26T12:58:45.281Z,17.33
2023-01-26T13:01:16.070Z,13.87
2023-01-26T13:03:45.991Z,14.60
2023-01-26T13:06:12.546Z,15.47
2023-01-26T13:08:51.512Z,12.40
2023-01-26T13:11:56.991Z,19.97
2023-01-26T13:14:29.173Z,11.07
2023-01-26T13:16:56.607Z,13.67
2023-01-26T13:19:41.946Z,12.57
2023-01-26T13:22:24.034Z,13.13
2023-01-26T13:24:56.705Z,12.03
2023-01-26T13:27:30.899Z,12.83
2023-01-26T13:29:57.715Z,11.40
2023-01-26T13:32:24.371Z,13.77
2023-01-26T13:35:00.321Z,12.73
2023-01-26T13:37:53.365Z,10.63
2023-01-26T13:40:25.177Z,11.47
2023-01-26T13:43:06.081Z,10.30
2023-01-26T13:45:43.971Z,11.80
2023-01-26T13:48:16.460Z,15.10
2023-01-26T13:50:43.375Z,11.83
2023-01-26T13:53:28.145Z,13.57
2023-01-26T13:55:58.899Z,15.40
2023-01-26T13:58:26.294Z,11.03
2023-01-26T14:00:59.493Z,11.43
2023-01-26T14:03:26.380Z,11.60
2023-01-26T14:06:00.591Z,13.13
2023-01-26T14:08:27.686Z,11.47
2023-01-26T14:10:55.523Z,11.70
2023-01-26T14:13:38.055Z,13.33
2023-01-26T14:16:06.385Z,14.67
2023-01-26T14:18:33.303Z,13.20
2023-01-26T14:21:05.766Z,12.90
2023-01-26T14:23:36.799Z,12.77
2023-01-26T14:26:10.755Z,16.80
2023-01-26T14:28:42.581Z,10.60
2023-01-26T14:31:26.527Z,15.07
2023-01-26T14:33:57.619Z,18.97
2023-01-26T14:36:27.732Z,12.30
2023-01-26T14:38:55.988Z,14.77
2023-01-26T14:41:31.686Z,14.93
2023-01-26T14:44:01.846Z,14.73
2023-01-26T14:46:38.623Z,12.00
2023-01-26T14:49:18.492Z,9.73
2023-01-26T14:51:47.423Z,11.90
2023-01-26T14:54:32.222Z,11.67
2023-01-26T14:57:00.305Z,11.97
2023-01-26T14:59:37.507Z,12.33
2023-01-26T15:02:17.742Z,12.93
2023-01-26T15:04:50.511Z,13.23
2023-01-26T15:07:37.468Z,15.07
2023-01-26T15:10:26.181Z,10.67
2023-01-26T15:13:07.026Z,12.17
2023-01-26T15:15:39.695Z,15.73
2023-01-26T15:18:18.817Z,12.77
2023-01-26T15:21:00.695Z,16.17
2023-01-26T15:23:35.930Z,19.57
2023-01-26T15:26:30.283Z,15.30
2023-01-26T15:29:07.050Z,20.50
2023-01-26T15:31:39.680Z,13.00
2023-01-26T15:34:06.668Z,12.50
2023-01-26T15:36:50.731Z,10.63
2023-01-26T15:39:19.537Z,18.10
2023-01-26T15:42:01.693Z,11.90
2023-01-26T15:44:28.406Z,15.50
2023-01-26T15:46:56.487Z,13.80
2023-01-26T15:49:23.435Z,13.80
2023-01-26T15:51:51.178Z,10.40
2023-01-26T15:54:19.181Z,10.77
2023-01-26T15:56:45.826Z,11.73
2023-01-26T15:59:12.472Z,12.43
2023-01-26T16:01:39.270Z,22.37
2023-01-26T16:04:05.880Z,11.00
2023-01-26T16:06:33.542Z,13.60
2023-01-26T16:09:00.188Z,17.87
2023-01-26T16:11:29.915Z,13.27
2023-01-26T16:14:03.376Z,15.13
2023-01-26T16:16:31.998Z,14.23
2023-01-26T16:18:58.968Z,14.50
2023-01-26T16:21:33.023Z,14.00
2023-01-26T16:24:01.259Z,13.90
2023-01-26T16:26:28.964Z,13.27
2023-01-26T16:28:56.247Z,9.93
2023-01-26T16:31:31.570Z,11.30
2023-01-26T16:34:00.083Z,13.97
2023-01-26T16:36:26.800Z,10.90
2023-01-26T16:38:53.448Z,11.30
2023-01-26T16:41:20.055Z,11.80
2023-01-26T16:43:46.700Z,10.97
2023-01-26T16:46:13.286Z,13.33
2023-01-26T16:48:40.657Z,11.97
2023-01-26T16:51:29.385Z,10.43
2023-01-26T16:53:56.879Z,11.83
2023-01-26T16:56:24.686Z,11.70
2023-01-26T16:58:51.717Z,16.60
2023-01-26T17:01:22.384Z,12.33
2023-01-26T17:03:49.863Z,12.93
2023-01-26T17:06:18.074Z,9.60
2023-01-26T17:08:45.383Z,8.87
2023-01-26T17:11:22.876Z,9.77
2023-01-26T17:13:49.939Z,11.27
2023-01-26T17:16:19.646Z,10.60
2023-01-26T17:18:47.415Z,12.97
2023-01-26T17:21:16.289Z,12.70
2023-01-26T17:23:46.294Z,10.77
2023-01-26T17:26:15.356Z,9.57
2023-01-26T17:28:46.438Z,10.13
2023-01-26T17:31:17.645Z,11.37
2023-01-26T17:33:46.790Z,10.73
2023-01-26T17:36:15.260Z,11.17
2023-01-26T17:38:42.452Z,13.87
2023-01-26T17:41:09.594Z,10.13
2023-01-26T17:43:36.441Z,12.53
2023-01-26T17:46:14.711Z,15.77
2023-01-26T17:48:44.207Z,12.07
2023-01-26T17:51:17.691Z,12.53
2023-01-26T17:53:46.659Z,11.93
2023-01-26T17:56:18.988Z,11.97
2023-01-26T17:58:54.261Z,12.43
2023-01-26T18:01:23.269Z,10.20
2023-01-26T18:03:50.045Z,11.43
2023-01-26T18:06:17.452Z,11.20
2023-01-26T18:08:44.117Z,12.57
2023-01-26T18:11:13.068Z,10.50
2023-01-26T18:13:40.054Z,10.80
2023-01-26T18:16:08.064Z,11.83
2023-01-26T18:18:35.079Z,13.13
2023-01-26T18:21:19.824Z,13.83
2023-01-26T18:23:47.506Z,15.23
2023-01-26T18:26:16.017Z,16.63
2023-01-26T18:28:43.998Z,13.63
2023-01-26T18:31:19.722Z,12.83
2023-01-26T18:33:47.025Z,40.07
2023-01-26T18:36:16.080Z,12.80
2023-01-26T18:38:44.564Z,13.93
2023-01-26T18:41:13.265Z,13.10
2023-01-26T18:43:40.232Z,16.63
2023-01-26T18:46:07.585Z,14.97
2023-01-26T18:48:35.263Z,12.87
2023-01-26T18:51:02.717Z,18.83
2023-01-26T18:53:29.891Z,22.73
2023-01-26T18:56:12.425Z,14.07
2023-01-26T18:58:40.076Z,12.53
2023-01-26T19:01:13.140Z,16.77
2023-01-26T19:03:42.248Z,13.50
2023-01-26T19:06:09.565Z,12.63
2023-01-26T19:08:36.204Z,13.37
2023-01-26T19:11:07.964Z,20.03
2023-01-26T19:13:34.664Z,15.80
2023-01-26T19:16:01.836Z,12.50
2023-01-26T19:18:28.803Z,14.07
2023-01-26T19:20:57.775Z,16.53
2023-01-26T19:23:24.778Z,14.90
2023-01-26T19:25:51.541Z,16.17
2023-01-26T19:28:18.548Z,14.27
2023-01-26T19:30:45.171Z,18.80
2023-01-26T19:33:23.928Z,17.13
2023-01-26T19:35:52.494Z,17.97
2023-01-26T19:38:21.031Z,14.90
2023-01-26T19:40:49.376Z,19.93
2023-01-26T19:43:18.915Z,14.23
2023-01-26T19:45:54.200Z,13.43
2023-01-26T19:48:23.358Z,18.00
2023-01-26T19:50:59.172Z,15.97
2023-01-26T19:53:26.980Z,14.60
2023-01-26T19:55:53.708Z,15.33
2023-01-26T19:58:20.341Z,20.80
2023-01-26T20:00:46.947Z,17.30
2023-01-26T20:03:13.553Z,16.23
2023-01-26T20:05:40.301Z,18.20
2023-01-26T20:08:06.890Z,21.50
2023-01-26T20:10:33.675Z,23.03
2023-01-26T20:13:01.234Z,18.87
2023-01-26T20:15:27.976Z,17.70
2023-01-26T20:17:54.552Z,23.43
2023-01-26T20:20:21.196Z,22.03
2023-01-26T20:22:47.754Z,22.07
2023-01-26T20:25:14.558Z,20.77
2023-01-26T20:27:41.209Z,18.33
2023-01-26T20:30:08.796Z,20.40
2023-01-26T20:32:35.551Z,23.20
2023-01-26T20:35:02.439Z,19.77
2023-01-26T20:37:30.044Z,22.83
2023-01-26T20:39:56.713Z,20.83
2023-01-26T20:42:23.442Z,23.17
2023-01-26T20:44:50.864Z,23.17
2023-01-26T20:47:17.694Z,19.17
2023-01-26T20:49:44.400Z,19.43
2023-01-26T20:52:11.151Z,17.60
2023-01-26T20:54:37.823Z,17.10
2023-01-26T20:57:04.433Z,17.70
2023-01-26T20:59:31.074Z,19.57
2023-01-26T21:01:57.896Z,16.70
2023-01-26T21:04:24.988Z,19.63
2023-01-26T21:06:51.622Z,19.27
2023-01-26T21:09:18.635Z,20.13
2023-01-26T21:11:45.299Z,20.70
2023-01-26T21:14:13.572Z,20.40
2023-01-26T21:16:40.572Z,17.17
2023-01-26T21:19:07.309Z,19.53
2023-01-26T21:21:33.983Z,21.10
2023-01-26T21:24:00.728Z,20.30
2023-01-26T21:26:30.487Z,20.60
2023-01-26T21:28:59.681Z,19.63
2023-01-26T21:31:30.302Z,19.93
2023-01-26T21:33:58.539Z,20.03
2023-01-26T21:36:27.465Z,19.90
2023-01-26T21:38:56.355Z,16.27
2023-01-26T21:41:45.579Z,20.67
2023-01-26T21:44:24.822Z,20.27
2023-01-26T21:46:54.346Z,20.70
2023-01-26T21:49:21.744Z,22.40
2023-01-26T21:52:07.081Z,21.00
2023-01-26T21:54:34.793Z,18.37
2023-01-26T21:57:02.795Z,18.53
2023-01-26T21:59:30.589Z,17.90
2023-01-26T22:01:58.407Z,18.13
2023-01-26T22:04:28.748Z,19.57
2023-01-26T22:06:56.620Z,18.60
2023-01-26T22:09:24.132Z,21.83
2023-01-26T22:11:51.714Z,19.67
2023-01-26T22:14:23.546Z,20.43
2023-01-26T22:16:50.295Z,19.83
2023-01-26T22:19:17.208Z,18.87
2023-01-26T22:21:44.745Z,19.97
2023-01-26T22:24:14.298Z,19.93
2023-01-26T22:26:41.781Z,18.90
2023-01-26T22:29:10.909Z,19.13
2023-01-26T22:31:37.613Z,21.43
2023-01-26T22:34:04.347Z,18.90
2023-01-26T22:36:31.327Z,20.00
2023-01-26T22:38:59.665Z,21.37
2023-01-26T22:41:28.529Z,18.37
2023-01-26T22:43:57.766Z,23.20
2023-01-26T22:46:25.866Z,21.27
2023-01-26T22:48:53.313Z,18.83
2023-01-26T22:51:22.589Z,23.43
2023-01-26T22:53:50.772Z,23.33
2023-01-26T22:56:18.235Z,23.70
2023-01-26T22:58:57.756Z,19.07
2023-01-26T23:01:27.782Z,20.67
2023-01-26T23:03:55.540Z,21.27
2023-01-26T23:06:22.526Z,21.57
2023-01-26T23:08:49.699Z,17.60
2023-01-26T23:11:34.600Z,21.33
2023-01-26T23:14:01.267Z,21.83
2023-01-26T23:16:28.429Z,18.63
2023-01-26T23:18:57.443Z,18.23
2023-01-26T23:21:25.597Z,23.13
2023-01-26T23:23:52.552Z,20.13
2023-01-26T23:26:20.434Z,19.57
2023-01-26T23:28:47.102Z,22.00
2023-01-26T23:31:16.058Z,18.83
2023-01-26T23:33:43.166Z,16.83
2023-01-26T23:36:11.524Z,20.23
2023-01-26T23:38:38.293Z,19.73
2023-01-26T23:41:05.499Z,19.67
2023-01-26T23:43:32.321Z,19.23
2023-01-26T23:45:59.101Z,20.83
2023-01-26T23:48:26.739Z,21.30
2023-01-26T23:51:01.616Z,23.50
2023-01-26T23:53:29.664Z,18.80
2023-01-26T23:55:58.666Z,20.93
2023-01-26T23:58:25.362Z,21.67
